Time;durP1;ratioP1;P1;durP2;ratioP2;P2;SDS_P1;SDS_P2;PMS_P1;PMS_P2;Temp;Humidity;BMP_temperature;BMP_pressure;BME280_temperature;BME280_humidity;BME280_pressure;Samples;Min_cycle;Max_cycle;Signal;HPM_P1;HPM_P2
2021/10/25 00:00:12;;;;;;;15.15;9.02;;;;;;;3.98;88.57;101797.53;4923265;28;20024;-73
2021/10/25 00:02:38;;;;;;;21.27;9.40;;;;;;;3.96;88.38;101799.34;4921951;28;20431;-72
2021/10/25 00:05:04;;;;;;;18.55;9.43;;;;;;;3.96;88.50;101798.53;4926787;28;20023;-73
2021/10/25 00:07:30;;;;;;;17.00;8.82;;;;;;;3.95;88.20;101802.00;4933027;28;20044;-73
2021/10/25 00:09:55;;;;;;;27.98;10.65;;;;;;;3.93;88.45;101799.50;4932365;28;20043;-73
2021/10/25 00:12:20;;;;;;;16.42;9.18;;;;;;;3.90;88.19;101797.16;4946357;28;20027;-72
2021/10/25 00:14:46;;;;;;;17.13;9.40;;;;;;;3.88;88.09;101796.38;4926644;28;20240;-72
2021/10/25 00:17:11;;;;;;;17.90;9.65;;;;;;;3.87;88.17;101794.75;4919789;29;20039;-72
2021/10/25 00:19:37;;;;;;;19.35;10.35;;;;;;;3.85;87.89;101796.56;4924924;29;20063;-73
2021/10/25 00:22:03;;;;;;;17.17;9.85;;;;;;;3.82;87.76;101791.59;4919591;29;20040;-73
2021/10/25 00:24:29;;;;;;;20.70;10.40;;;;;;;3.79;88.15;101784.91;4927588;28;20032;-73
2021/10/25 00:26:54;;;;;;;24.08;10.25;;;;;;;3.76;88.15;101786.84;4944957;28;20381;-73
2021/10/25 00:29:20;;;;;;;18.23;9.60;;;;;;;3.74;88.06;101786.09;4932788;28;20388;-72
2021/10/25 00:31:46;;;;;;;23.25;10.13;;;;;;;3.72;88.35;101781.06;4925070;29;20075;-73
2021/10/25 00:34:13;;;;;;;23.10;10.98;;;;;;;3.69;88.52;101776.94;4922843;29;20032;-73
2021/10/25 00:36:40;;;;;;;30.08;11.43;;;;;;;3.69;88.59;101786.34;4911270;29;20052;-74
2021/10/25 00:39:06;;;;;;;18.65;9.82;;;;;;;3.68;88.56;101777.00;4926518;28;20040;-72
2021/10/25 00:41:31;;;;;;;22.35;11.52;;;;;;;3.70;88.66;101778.56;4911092;28;20031;-73
2021/10/25 00:43:57;;;;;;;28.20;10.98;;;;;;;3.73;89.05;101775.03;4954336;28;20624;-74
2021/10/25 00:46:23;;;;;;;18.80;10.80;;;;;;;3.69;89.57;101773.50;4926942;29;20027;-73
2021/10/25 00:48:48;;;;;;;19.50;10.68;;;;;;;3.70;89.33;101777.75;4918270;29;20036;-73
2021/10/25 00:51:14;;;;;;;21.70;11.80;;;;;;;3.66;90.13;101771.97;4922631;28;20059;-73
2021/10/25 00:53:41;;;;;;;22.83;10.65;;;;;;;3.64;89.71;101773.78;4924770;28;20043;-73
2021/10/25 00:56:09;;;;;;;22.40;10.63;;;;;;;3.62;89.92;101778.19;4907615;29;20517;-73
2021/10/25 00:58:35;;;;;;;25.88;10.57;;;;;;;3.61;90.05;101770.56;4928573;29;20028;-73
2021/10/25 01:01:01;;;;;;;22.00;10.32;;;;;;;3.59;90.09;101770.66;4918652;28;20097;-73
2021/10/25 01:03:28;;;;;;;20.15;10.52;;;;;;;3.58;90.14;101769.00;4921818;28;20031;-73
2021/10/25 01:05:54;;;;;;;20.55;9.95;;;;;;;3.59;89.68;101767.28;4919236;28;20512;-72
2021/10/25 01:08:20;;;;;;;18.33;10.20;;;;;;;3.57;89.96;101764.78;4923044;29;20040;-73
2021/10/25 01:10:46;;;;;;;21.55;10.15;;;;;;;3.55;90.09;101765.78;4936346;28;20040;-72
2021/10/25 01:13:13;;;;;;;23.25;10.10;;;;;;;3.54;90.50;101761.56;4922357;29;20031;-72
2021/10/25 01:15:39;;;;;;;19.70;9.43;;;;;;;3.54;90.85;101771.81;4910430;28;20479;-73
2021/10/25 01:18:05;;;;;;;20.05;9.55;;;;;;;3.51;90.81;101772.84;4898252;28;20027;-73
2021/10/25 01:20:31;;;;;;;20.08;10.85;;;;;;;3.54;90.80;101770.06;4921947;28;20504;-74
2021/10/25 01:22:58;;;;;;;20.40;10.00;;;;;;;3.47;90.76;101767.06;4909808;28;20032;-73
2021/10/25 01:25:24;;;;;;;24.48;11.48;;;;;;;3.54;90.39;101772.63;4906477;28;20480;-73
2021/10/25 01:27:56;;;;;;;22.23;11.80;;;;;;;3.55;90.65;101771.75;4924965;28;20483;-73
2021/10/25 01:30:21;;;;;;;20.05;10.60;;;;;;;3.58;90.88;101770.72;4918956;29;20091;-73
2021/10/25 01:32:50;;;;;;;24.45;11.20;;;;;;;3.53;91.25;101765.88;4926321;28;20602;-72
2021/10/25 01:35:18;;;;;;;16.75;9.60;;;;;;;3.50;91.60;101766.88;4925938;28;20028;-72
2021/10/25 01:37:43;;;;;;;22.15;11.35;;;;;;;3.50;91.20;101768.59;4918316;29;20036;-73
2021/10/25 01:40:11;;;;;;;23.23;10.93;;;;;;;3.57;91.50;101767.34;4923756;28;20343;-72
2021/10/25 01:42:38;;;;;;;23.73;10.52;;;;;;;3.66;91.55;101764.25;4926316;29;20407;-73
2021/10/25 01:45:07;;;;;;;18.83;10.57;;;;;;;3.62;91.35;101761.97;4917153;29;20484;-73
2021/10/25 01:47:33;;;;;;;21.35;10.90;;;;;;;3.59;91.71;101760.41;4929182;29;20305;-73
2021/10/25 01:50:00;;;;;;;17.77;10.38;;;;;;;3.56;92.18;101765.72;4929089;28;20110;-72
2021/10/25 01:52:27;;;;;;;17.75;10.73;;;;;;;3.51;92.11;101755.69;4927753;28;20400;-72
2021/10/25 01:54:56;;;;;;;26.40;11.13;;;;;;;3.54;91.68;101757.25;4922813;28;20608;-73
2021/10/25 01:57:21;;;;;;;21.50;9.93;;;;;;;3.49;91.62;101751.59;4907536;29;20036;-73
2021/10/25 01:59:48;;;;;;;16.27;9.20;;;;;;;3.45;91.89;101745.78;4932521;28;20040;-72
2021/10/25 02:02:17;;;;;;;17.73;9.80;;;;;;;3.43;91.58;101747.63;4913041;28;20023;-72
2021/10/25 02:04:43;;;;;;;18.02;8.77;;;;;;;3.39;91.71;101741.03;4943234;28;20537;-72
2021/10/25 02:07:09;;;;;;;17.90;10.18;;;;;;;3.36;91.64;101740.38;4914248;28;20119;-72
2021/10/25 02:09:35;;;;;;;16.65;9.45;;;;;;;3.35;91.91;101738.69;4929034;29;20495;-72
2021/10/25 02:12:00;;;;;;;16.73;10.05;;;;;;;3.35;91.53;101747.22;4928951;29;20039;-73
2021/10/25 02:14:26;;;;;;;18.27;9.75;;;;;;;3.33;91.53;101736.22;4931173;28;20046;-72
2021/10/25 02:16:52;;;;;;;16.95;9.45;;;;;;;3.30;91.34;101731.28;4912091;29;20036;-72
2021/10/25 02:19:18;;;;;;;18.40;9.70;;;;;;;3.29;91.19;101733.00;4913474;28;20047;-72
2021/10/25 02:22:03;;;;;;;18.75;9.55;;;;;;;3.27;90.94;101724.56;4921989;28;20043;-72
2021/10/25 02:24:29;;;;;;;18.13;9.85;;;;;;;3.33;90.39;101720.00;4928718;29;20043;-72
2021/10/25 02:26:55;;;;;;;19.08;9.02;;;;;;;3.28;90.81;101728.78;4903459;29;20047;-72
2021/10/25 02:29:23;;;;;;;17.83;9.13;;;;;;;3.23;90.62;101720.53;4926828;28;20027;-73
2021/10/25 02:31:49;;;;;;;15.95;8.65;;;;;;;3.22;90.67;101721.47;4930431;29;20035;-72
2021/10/25 02:34:16;;;;;;;16.52;8.82;;;;;;;3.19;90.85;101720.81;4929368;28;20032;-72
2021/10/25 02:36:45;;;;;;;14.70;8.40;;;;;;;3.16;90.93;101716.66;4928077;29;20046;-72
2021/10/25 02:39:18;;;;;;;16.77;8.80;;;;;;;3.12;91.29;101720.31;4928829;28;20032;-72
2021/10/25 02:41:44;;;;;;;16.08;8.20;;;;;;;3.10;91.25;101717.00;4957979;28;20134;-72
2021/10/25 02:44:10;;;;;;;16.10;7.95;;;;;;;3.06;91.25;101716.34;4911482;28;20052;-72
2021/10/25 02:46:36;;;;;;;13.80;8.15;;;;;;;3.05;90.92;101718.97;4913801;28;20400;-72
2021/10/25 02:49:02;;;;;;;14.10;8.25;;;;;;;3.05;90.87;101713.84;4929319;28;20028;-72
2021/10/25 02:51:28;;;;;;;14.93;8.52;;;;;;;3.01;90.94;101708.06;4911863;29;20040;-72
2021/10/25 02:53:55;;;;;;;13.80;8.20;;;;;;;3.00;90.74;101718.44;4928466;29;20028;-72
2021/10/25 02:56:27;;;;;;;13.40;7.22;;;;;;;3.00;90.58;101721.81;4907357;28;20043;-72
2021/10/25 02:58:52;;;;;;;17.83;8.63;;;;;;;2.97;90.07;101716.84;4927161;28;20032;-72
2021/10/25 03:01:18;;;;;;;16.40;8.13;;;;;;;2.98;90.53;101718.50;4945047;28;20503;-73
2021/10/25 03:03:43;;;;;;;16.48;8.30;;;;;;;2.97;90.12;101710.91;4925216;29;20039;-72
2021/10/25 03:06:09;;;;;;;16.92;8.38;;;;;;;2.96;90.11;101711.78;4925098;29;20032;-73
2021/10/25 03:08:34;;;;;;;16.73;8.73;;;;;;;2.95;90.10;101712.72;4927569;29;20039;-72
2021/10/25 03:11:00;;;;;;;15.93;8.27;;;;;;;2.93;89.69;101707.69;4927819;28;20039;-72
2021/10/25 03:13:27;;;;;;;12.95;7.65;;;;;;;2.92;89.89;101699.16;4927905;29;20127;-72
2021/10/25 03:15:56;;;;;;;13.07;7.88;;;;;;;2.91;89.73;101697.50;4911850;28;20355;-73
2021/10/25 03:18:22;;;;;;;13.00;7.18;;;;;;;2.89;89.98;101701.06;4927892;28;20039;-72
2021/10/25 03:20:48;;;;;;;13.40;7.80;;;;;;;2.89;90.08;101707.00;4927741;28;20126;-72
2021/10/25 03:23:14;;;;;;;16.00;8.85;;;;;;;2.88;90.26;101702.81;4927263;29;20081;-72
2021/10/25 03:25:41;;;;;;;14.30;9.05;;;;;;;2.93;89.70;101702.56;4907882;29;20451;-72
2021/10/25 03:28:07;;;;;;;16.50;7.97;;;;;;;2.92;90.15;101693.22;4931763;28;20032;-72
2021/10/25 03:30:34;;;;;;;15.02;7.72;;;;;;;2.89;90.21;101693.38;4929387;28;20039;-72
2021/10/25 03:33:04;;;;;;;13.27;9.00;;;;;;;2.86;90.70;101688.41;4927971;29;20035;-72
2021/10/25 03:35:44;;;;;;;16.60;8.20;;;;;;;2.83;90.65;101693.72;4928178;28;20031;-72
2021/10/25 03:38:13;;;;;;;18.33;9.00;;;;;;;2.81;90.76;101693.81;4923591;28;20039;-72
2021/10/25 03:40:42;;;;;;;16.75;8.00;;;;;;;2.80;90.88;101689.56;4937924;28;20120;-72
2021/10/25 03:43:08;;;;;;;14.25;8.10;;;;;;;2.77;90.47;101686.34;4927956;28;20040;-73
2021/10/25 03:45:42;;;;;;;16.38;8.38;;;;;;;2.76;90.44;101693.22;4976371;28;20035;-73
2021/10/25 03:48:21;;;;;;;17.20;8.23;;;;;;;2.73;90.37;101683.97;4925209;29;20043;-72
2021/10/25 03:50:49;;;;;;;19.02;8.73;;;;;;;2.73;90.21;101681.41;4943964;28;20066;-72
2021/10/25 04:01:12;;;;;;;18.48;8.45;;;;;;;2.68;90.69;101683.41;4926832;29;20440;-72
2021/10/25 04:26:24;;;;;;;10.07;7.03;;;;;;;2.52;90.62;101673.16;4928246;29;20038;-72
2021/10/25 04:28:50;;;;;;;15.93;7.97;;;;;;;2.53;90.81;101671.44;4924631;28;20370;-72
2021/10/25 04:31:16;;;;;;;15.50;8.30;;;;;;;2.55;90.58;101671.34;4926664;29;20039;-72
2021/10/25 04:33:58;;;;;;;14.20;7.05;;;;;;;2.52;90.37;101665.50;4929991;28;20032;-72
2021/10/25 04:36:44;;;;;;;18.02;8.75;;;;;;;2.53;90.75;101661.19;4926874;28;20040;-72
2021/10/25 04:39:42;;;;;;;20.88;8.90;;;;;;;2.59;91.31;101668.53;4928342;28;20138;-73
2021/10/25 04:42:16;;;;;;;16.65;8.40;;;;;;;2.67;91.32;101668.94;4926941;29;20032;-73
2021/10/25 04:44:42;;;;;;;15.02;7.95;;;;;;;2.64;91.85;101663.16;4923706;28;20358;-72
2021/10/25 04:47:08;;;;;;;17.77;9.77;;;;;;;2.60;92.20;101659.09;4924455;29;20432;-72
2021/10/25 04:49:33;;;;;;;16.63;8.73;;;;;;;2.59;92.37;101663.41;4922966;29;20030;-73
2021/10/25 04:52:17;;;;;;;17.20;8.10;;;;;;;2.59;92.82;101667.72;4925142;28;20038;-73
2021/10/25 04:54:43;;;;;;;15.82;7.80;;;;;;;2.58;92.54;101663.47;4961823;28;20415;-73
2021/10/25 04:57:09;;;;;;;22.67;8.98;;;;;;;2.60;93.08;101664.22;4935164;29;20044;-72
2021/10/25 04:59:36;;;;;;;19.00;8.13;;;;;;;2.60;92.85;101669.34;4926912;28;20043;-72
2021/10/25 05:02:03;;;;;;;16.73;7.15;;;;;;;2.59;92.99;101668.53;4917877;29;20039;-72
2021/10/25 05:04:30;;;;;;;14.30;7.55;;;;;;;2.60;93.11;101666.78;4921850;28;20067;-72
2021/10/25 05:06:56;;;;;;;16.35;8.85;;;;;;;2.58;92.86;101669.44;4925017;28;20123;-72
2021/10/25 05:09:22;;;;;;;13.30;8.63;;;;;;;2.56;92.67;101670.41;4921752;28;20035;-72
2021/10/25 05:11:47;;;;;;;16.42;8.65;;;;;;;2.53;92.85;101672.25;4924255;29;20043;-72
2021/10/25 05:14:13;;;;;;;20.98;9.15;;;;;;;2.53;92.76;101676.53;4922074;28;20457;-72
2021/10/25 05:16:39;;;;;;;16.27;9.00;;;;;;;2.53;92.76;101672.25;4923417;29;20123;-72
2021/10/25 05:19:07;;;;;;;15.73;8.10;;;;;;;2.50;92.46;101674.97;4918041;29;20035;-72
2021/10/25 05:21:34;;;;;;;11.95;7.70;;;;;;;2.49;92.36;101669.94;4927601;28;20038;-73
2021/10/25 05:24:00;;;;;;;14.30;7.68;;;;;;;2.48;91.94;101665.72;4913336;28;20027;-72
2021/10/25 05:26:28;;;;;;;13.88;8.07;;;;;;;2.47;91.97;101670.03;4919716;29;20032;-72
2021/10/25 05:28:54;;;;;;;14.55;8.00;;;;;;;2.47;91.92;101662.34;4939123;28;20032;-72
2021/10/25 05:31:19;;;;;;;13.30;7.40;;;;;;;2.45;91.53;101656.47;4926895;28;20198;-73
2021/10/25 05:33:45;;;;;;;15.73;7.57;;;;;;;2.44;91.39;101657.38;4924431;29;20032;-73
2021/10/25 05:36:10;;;;;;;11.90;6.50;;;;;;;2.42;91.43;101655.81;4927240;28;20027;-73
2021/10/25 05:38:37;;;;;;;16.30;7.45;;;;;;;2.40;90.86;101667.88;4925967;28;20047;-72
2021/10/25 05:41:09;;;;;;;12.68;7.13;;;;;;;2.39;91.05;101659.34;4942182;28;20046;-73
2021/10/25 05:43:35;;;;;;;16.85;7.82;;;;;;;2.47;90.98;101662.34;4926110;29;20114;-73
2021/10/25 05:46:01;;;;;;;12.05;6.63;;;;;;;2.45;91.37;101660.75;4918377;29;20086;-73
2021/10/25 05:48:27;;;;;;;14.88;7.05;;;;;;;2.42;91.71;101661.75;4925834;29;20051;-73
2021/10/25 05:50:54;;;;;;;14.05;7.03;;;;;;;2.61;92.55;101659.03;4922525;28;20043;-73
2021/10/25 05:53:19;;;;;;;22.63;7.22;;;;;;;2.80;93.29;101656.28;4927029;28;20162;-73
2021/10/25 05:55:46;;;;;;;18.27;7.82;;;;;;;2.92;93.86;101650.50;4930167;29;20063;-73
2021/10/25 05:58:22;;;;;;;21.42;8.70;;;;;;;3.14;93.87;101659.53;4911286;28;20029;-74
2021/10/25 06:00:59;;;;;;;19.33;8.88;;;;;;;3.10;93.65;101655.50;4911791;29;20435;-73
2021/10/25 06:03:53;;;;;;;28.60;11.77;;;;;;;3.01;93.98;101656.00;4932226;28;20035;-72
2021/10/25 06:06:18;;;;;;;27.67;11.55;;;;;;;3.04;93.64;101661.78;4924883;28;20046;-73
2021/10/25 06:08:44;;;;;;;17.48;8.55;;;;;;;3.03;93.88;101660.16;4929005;28;20039;-73
2021/10/25 06:11:09;;;;;;;16.52;8.43;;;;;;;2.90;93.82;101666.84;4926532;29;20086;-73
2021/10/25 06:13:40;;;;;;;17.58;9.88;;;;;;;2.99;94.01;101670.63;4921812;29;20033;-72
2021/10/25 06:18:40;;;;;;;30.20;15.13;;;;;;;2.95;94.30;101664.84;4941702;28;20061;-73
2021/10/25 06:21:07;;;;;;;22.95;12.20;;;;;;;2.97;93.79;101662.22;4930323;28;20063;-73
2021/10/25 06:23:35;;;;;;;17.17;8.98;;;;;;;2.98;93.83;101656.19;4925510;29;20094;-73
2021/10/25 06:26:05;;;;;;;18.17;9.35;;;;;;;2.92;93.75;101660.75;4913802;28;20496;-73
2021/10/25 06:28:33;;;;;;;20.30;9.20;;;;;;;2.82;93.62;101657.00;4941685;28;20059;-73
2021/10/25 06:31:05;;;;;;;18.08;9.27;;;;;;;2.86;93.63;101650.84;4927154;28;20035;-73
2021/10/25 06:33:50;;;;;;;22.60;10.20;;;;;;;3.01;93.85;101646.56;4925874;28;20503;-73
2021/10/25 06:36:25;;;;;;;17.65;8.20;;;;;;;3.14;93.55;101648.44;4943741;28;20526;-74
2021/10/25 06:39:08;;;;;;;17.67;8.88;;;;;;;3.21;92.94;101655.72;4928510;29;20039;-73
2021/10/25 06:41:34;;;;;;;14.05;8.52;;;;;;;2.99;92.78;101653.53;4904911;28;20511;-73
2021/10/25 06:44:01;;;;;;;21.55;8.90;;;;;;;2.92;93.60;101654.78;4920908;29;20024;-73
2021/10/25 06:46:27;;;;;;;20.75;8.88;;;;;;;2.97;93.56;101662.22;4929077;29;20543;-73
2021/10/25 06:48:56;;;;;;;18.85;8.90;;;;;;;3.08;93.85;101652.19;4926371;28;20071;-74
2021/10/25 06:51:23;;;;;;;22.65;9.10;;;;;;;3.08;93.90;101657.31;4928488;29;20035;-73
2021/10/25 06:53:48;;;;;;;19.77;9.27;;;;;;;3.21;93.53;101657.44;5010341;28;20040;-74
2021/10/25 06:56:15;;;;;;;43.63;17.10;;;;;;;3.20;93.18;101658.34;4926282;29;20034;-74
2021/10/25 06:58:40;;;;;;;25.27;9.45;;;;;;;3.17;93.73;101664.50;4902853;29;20032;-73
2021/10/25 07:01:06;;;;;;;22.80;9.55;;;;;;;3.30;93.00;101660.31;4920612;28;20404;-73
2021/10/25 07:03:36;;;;;;;21.25;8.80;;;;;;;3.38;92.96;101662.44;4928366;29;20064;-74
2021/10/25 07:06:03;;;;;;;15.90;8.68;;;;;;;3.43;93.17;101659.63;4924576;29;20036;-73
2021/10/25 07:08:31;;;;;;;17.20;8.75;;;;;;;3.51;92.58;101660.00;4928335;29;20056;-73
2021/10/25 07:10:56;;;;;;;15.18;8.30;;;;;;;3.56;92.20;101663.13;4925412;28;20551;-74
2021/10/25 07:13:24;;;;;;;27.50;13.23;;;;;;;3.56;92.45;101658.00;4926575;29;20094;-74
2021/10/25 07:16:02;;;;;;;17.08;9.32;;;;;;;3.62;92.51;101657.63;4926076;29;20550;-74
2021/10/25 07:18:38;;;;;;;17.52;8.02;;;;;;;3.74;92.26;101663.78;4926480;29;20059;-74
2021/10/25 08:07:30;;;;;;;12.23;6.15;;;;;;;7.53;78.37;101680.59;4924129;28;20035;-74
2021/10/25 08:10:15;;;;;;;11.80;5.93;;;;;;;7.84;76.25;101665.41;4911159;29;20060;-74
2021/10/25 08:12:50;;;;;;;16.63;5.57;;;;;;;8.20;75.24;101676.44;4915185;28;20035;-73
2021/10/25 08:15:22;;;;;;;9.60;5.20;;;;;;;8.67;73.79;101669.31;4980153;28;20561;-73
2021/10/25 08:17:53;;;;;;;15.02;5.68;;;;;;;8.79;73.48;101674.47;4932922;28;20135;-73
2021/10/25 08:20:19;;;;;;;16.48;6.30;;;;;;;8.98;72.67;101666.03;4908750;29;20516;-73
2021/10/25 08:22:44;;;;;;;13.63;5.47;;;;;;;8.97;72.25;101662.63;4909495;28;20047;-72
2021/10/25 08:25:11;;;;;;;13.25;5.20;;;;;;;9.43;71.53;101668.38;4911892;28;20031;-74
2021/10/25 08:27:54;;;;;;;16.30;5.20;;;;;;;9.78;70.05;101669.81;4944765;28;20035;-73
2021/10/25 08:30:21;;;;;;;10.45;5.82;;;;;;;9.26;70.50;101672.38;4919031;29;20032;-73
2021/10/25 08:41:03;;;;;;;9.88;5.18;;;;;;;9.79;70.37;101659.31;4937691;28;20059;-74
2021/10/25 08:43:33;;;;;;;12.65;7.68;;;;;;;10.11;69.93;101656.56;4922679;28;20480;-73
2021/10/25 08:46:04;;;;;;;8.88;5.07;;;;;;;10.37;69.66;101652.69;4929777;28;20451;-73
2021/10/25 08:48:30;;;;;;;11.38;5.10;;;;;;;10.77;69.43;101665.56;4926297;28;20036;-73
2021/10/25 08:50:57;;;;;;;28.15;14.93;;;;;;;10.61;69.16;101666.13;4920629;28;20039;-73
2021/10/25 08:53:23;;;;;;;18.88;10.30;;;;;;;10.71;68.69;101660.94;4931397;28;20025;-75
2021/10/25 08:55:54;;;;;;;11.68;5.53;;;;;;;10.51;69.47;101660.09;5006597;28;20122;-72
2021/10/25 08:58:26;;;;;;;20.25;12.48;;;;;;;10.19;70.91;101663.69;4923400;29;20127;-74
2021/10/25 09:00:53;;;;;;;11.82;6.63;;;;;;;9.80;71.86;101662.72;4926378;28;20046;-73
2021/10/25 09:03:25;;;;;;;13.60;4.83;;;;;;;9.62;73.58;101667.69;4934564;28;20563;-73
2021/10/25 09:06:02;;;;;;;15.50;5.82;;;;;;;9.35;74.80;101669.84;4928710;28;20035;-74
2021/10/25 09:08:33;;;;;;;31.33;16.23;;;;;;;9.30;75.28;101666.00;4920477;29;20040;-73
2021/10/25 09:10:59;;;;;;;11.27;4.72;;;;;;;9.19;76.13;101669.44;4929300;28;20563;-73
2021/10/25 09:13:26;;;;;;;21.15;6.72;;;;;;;9.17;76.36;101671.34;4910589;29;20035;-72
2021/10/25 09:15:53;;;;;;;13.02;4.82;;;;;;;9.28;75.46;101670.47;4949976;28;20038;-73
2021/10/25 09:18:38;;;;;;;22.20;9.88;;;;;;;9.41;75.05;101663.34;4937775;28;20143;-74
2021/10/25 09:21:09;;;;;;;22.63;11.50;;;;;;;9.39;76.00;101660.06;4927046;29;20399;-73
2021/10/25 09:23:46;;;;;;;18.25;6.72;;;;;;;9.33;75.69;101657.97;4925341;29;20404;-73
2021/10/25 09:26:18;;;;;;;16.98;10.48;;;;;;;9.28;75.77;101655.75;4920506;28;20399;-73
2021/10/25 09:28:53;;;;;;;19.25;9.93;;;;;;;9.38;75.67;101661.03;4921985;28;20047;-74
2021/10/25 09:31:26;;;;;;;12.52;4.80;;;;;;;9.45;75.17;101658.72;4922120;29;20476;-74
2021/10/25 09:34:05;;;;;;;6.88;4.18;;;;;;;9.48;76.16;101654.13;4930326;28;20036;-74
2021/10/25 09:36:55;;;;;;;9.45;4.10;;;;;;;9.61;74.93;101653.09;4923605;28;20086;-74
2021/10/25 09:39:27;;;;;;;12.77;6.53;;;;;;;9.62;75.64;101655.53;4932880;28;20051;-73
2021/10/25 09:42:18;;;;;;;9.90;5.03;;;;;;;9.69;76.73;101651.50;4926516;29;20032;-74
2021/10/25 09:45:20;;;;;;;14.65;4.20;;;;;;;9.82;75.44;101653.06;4916949;29;20047;-74
2021/10/25 09:50:59;;;;;;;6.85;4.07;;;;;;;9.95;74.42;101648.47;4972012;28;20036;-73
2021/10/25 09:53:43;;;;;;;8.07;4.10;;;;;;;10.00;74.77;101651.50;4920081;28;20027;-74
2021/10/25 09:56:11;;;;;;;11.57;4.15;;;;;;;9.91;74.38;101645.31;4937853;28;20508;-73
2021/10/25 09:59:17;;;;;;;9.90;4.65;;;;;;;9.90;75.13;101648.84;4925987;28;20044;-73
2021/10/25 10:01:44;;;;;;;14.55;4.55;;;;;;;10.03;74.56;101642.63;4923862;29;20036;-74
2021/10/25 10:04:10;;;;;;;10.23;4.80;;;;;;;10.09;74.67;101648.09;4923675;28;20024;-73
2021/10/25 10:06:58;;;;;;;14.40;4.70;;;;;;;10.10;74.61;101649.75;4914865;28;20035;-73
2021/10/25 10:09:24;;;;;;;9.10;4.18;;;;;;;10.16;75.15;101632.84;4911789;28;20034;-74
2021/10/25 10:11:50;;;;;;;6.78;3.65;;;;;;;10.40;72.69;101636.88;4924435;28;20028;-74
2021/10/25 10:14:16;;;;;;;7.68;4.20;;;;;;;10.39;74.07;101627.47;4910929;29;20032;-73
2021/10/25 10:16:48;;;;;;;10.43;3.80;;;;;;;10.45;73.46;101635.53;5010755;28;20028;-73
2021/10/25 10:19:21;;;;;;;8.02;4.47;;;;;;;10.57;73.67;101638.81;4928145;28;20055;-73
2021/10/25 10:22:03;;;;;;;9.88;3.92;;;;;;;10.43;73.56;101634.81;4927908;29;20077;-74
2021/10/25 10:24:40;;;;;;;9.93;4.53;;;;;;;10.58;72.63;101630.06;4920685;29;20032;-73
2021/10/25 10:27:07;;;;;;;7.43;3.80;;;;;;;10.67;73.89;101634.44;4923415;28;20039;-75
2021/10/25 10:29:39;;;;;;;13.30;5.05;;;;;;;10.87;71.94;101626.66;4919115;28;20035;-74
2021/10/25 10:32:15;;;;;;;10.07;4.25;;;;;;;10.95;71.56;101628.56;4957824;28;20051;-74
2021/10/25 10:35:08;;;;;;;15.07;5.22;;;;;;;11.06;71.09;101628.44;4927570;29;20137;-74
2021/10/25 10:38:00;;;;;;;13.60;4.57;;;;;;;11.06;71.60;101629.22;4927039;29;20094;-74
2021/10/25 10:40:39;;;;;;;13.55;4.45;;;;;;;11.13;71.01;101628.66;4932650;28;20127;-75
2021/10/25 10:43:26;;;;;;;12.18;4.38;;;;;;;11.16;72.04;101620.63;4927882;29;20086;-75
2021/10/25 10:46:05;;;;;;;9.02;4.00;;;;;;;11.29;72.24;101621.94;4927548;28;20043;-74
2021/10/25 10:48:35;;;;;;;9.25;3.78;;;;;;;11.33;70.73;101619.06;4929669;28;20506;-74
2021/10/25 10:51:05;;;;;;;7.13;3.63;;;;;;;11.24;71.16;101616.34;4927822;28;20085;-74
2021/10/25 10:53:38;;;;;;;5.63;3.22;;;;;;;11.28;70.84;101614.28;4920973;29;20514;-75
2021/10/25 10:56:22;;;;;;;7.55;3.40;;;;;;;11.36;69.65;101604.03;4928092;28;20074;-74
2021/10/25 11:01:14;;;;;;;9.25;3.65;;;;;;;11.48;70.81;101615.88;4922191;28;20032;-74
2021/10/25 11:03:40;;;;;;;8.88;3.40;;;;;;;11.57;71.39;101614.22;4926106;28;20547;-74
2021/10/25 11:06:17;;;;;;;8.77;2.88;;;;;;;11.75;70.01;101616.84;4927160;28;20039;-74
2021/10/25 11:08:45;;;;;;;11.00;3.30;;;;;;;11.99;69.24;101612.94;4946524;28;20480;-74
2021/10/25 11:11:19;;;;;;;6.95;3.28;;;;;;;12.15;69.00;101609.69;4924159;28;20035;-74
2021/10/25 11:14:01;;;;;;;8.93;4.00;;;;;;;12.13;69.23;101604.66;4922901;28;20122;-74
2021/10/25 11:16:41;;;;;;;11.70;5.35;;;;;;;12.11;68.85;101604.00;4921897;28;20063;-74
2021/10/25 11:19:09;;;;;;;8.80;3.88;;;;;;;12.07;69.90;101600.88;4927772;28;20477;-74
2021/10/25 11:21:39;;;;;;;13.65;3.55;;;;;;;12.28;68.53;101602.34;4923629;28;20040;-75
2021/10/25 11:24:08;;;;;;;11.05;4.22;;;;;;;12.26;68.96;101601.69;4958392;28;20396;-75
2021/10/25 11:26:43;;;;;;;6.78;3.22;;;;;;;12.26;69.73;101596.50;4924036;29;20572;-74
2021/10/25 11:29:17;;;;;;;12.30;3.85;;;;;;;12.21;69.65;101585.75;4925817;28;20038;-74
2021/10/25 11:31:49;;;;;;;11.60;3.58;;;;;;;12.40;67.79;101589.97;4908065;29;20036;-75
2021/10/25 11:34:24;;;;;;;24.02;7.03;;;;;;;12.45;68.29;101587.72;4923153;28;20103;-75
2021/10/25 11:37:02;;;;;;;15.05;6.38;;;;;;;12.34;69.66;101588.78;4921590;29;20043;-74
2021/10/25 11:39:41;;;;;;;13.27;3.65;;;;;;;12.29;70.42;101582.41;4927330;28;20086;-74
2021/10/25 11:42:17;;;;;;;8.70;3.58;;;;;;;12.26;70.61;101579.13;4927748;28;20054;-74
2021/10/25 11:44:44;;;;;;;7.15;3.22;;;;;;;12.39;70.34;101570.94;4927442;29;20039;-75
2021/10/25 11:47:20;;;;;;;9.43;3.80;;;;;;;12.46;69.32;101565.97;4927830;28;20059;-75
2021/10/25 11:49:47;;;;;;;8.10;3.10;;;;;;;12.62;68.04;101568.72;4928040;29;20036;-75
2021/10/25 11:52:13;;;;;;;9.05;3.05;;;;;;;12.65;68.92;101562.38;4927402;28;20028;-74
2021/10/25 11:54:49;;;;;;;8.57;2.80;;;;;;;12.75;68.25;101559.69;4928604;28;20447;-76
2021/10/25 11:57:17;;;;;;;5.88;3.15;;;;;;;12.70;69.37;101557.53;4920893;28;20040;-74
2021/10/25 11:59:53;;;;;;;5.47;2.40;;;;;;;12.76;70.60;101563.94;4929072;28;20085;-75
2021/10/25 12:02:23;;;;;;;6.07;3.10;;;;;;;12.81;69.69;101559.09;4940504;28;20039;-75
2021/10/25 12:04:50;;;;;;;6.88;2.70;;;;;;;12.94;68.44;101559.50;4926037;28;20500;-75
2021/10/25 12:07:15;;;;;;;10.48;3.28;;;;;;;12.99;69.22;101557.25;4921529;28;20051;-77
2021/10/25 12:09:41;;;;;;;9.05;3.10;;;;;;;13.07;66.64;101551.25;4922024;28;20500;-75
2021/10/25 12:12:14;;;;;;;8.73;3.58;;;;;;;13.18;67.01;101558.00;4906111;28;20079;-75
2021/10/25 12:14:43;;;;;;;8.98;2.83;;;;;;;13.16;67.58;101554.75;4921626;28;20127;-74
2021/10/25 12:17:13;;;;;;;7.18;3.15;;;;;;;12.99;69.22;101551.22;5003584;28;20047;-75
2021/10/25 12:19:42;;;;;;;10.65;3.42;;;;;;;12.94;70.23;101546.50;4940055;28;20272;-74
2021/10/25 12:22:08;;;;;;;5.07;2.97;;;;;;;12.88;70.52;101546.28;4943045;28;20067;-74
2021/10/25 12:24:39;;;;;;;6.28;3.10;;;;;;;13.01;69.67;101547.47;4918848;28;20036;-75
2021/10/25 12:27:06;;;;;;;12.48;2.80;;;;;;;13.14;69.67;101547.06;4921897;28;20081;-73
2021/10/25 12:29:32;;;;;;;8.68;2.53;;;;;;;13.05;68.13;101538.41;4927484;28;20034;-73
2021/10/25 12:32:07;;;;;;;6.47;2.67;;;;;;;13.10;66.23;101540.56;4926194;29;20028;-74
2021/10/25 12:34:44;;;;;;;4.18;1.92;;;;;;;12.99;65.68;101535.59;4927089;28;20039;-74
2021/10/25 12:37:18;;;;;;;4.35;1.77;;;;;;;12.98;65.89;101544.41;4927134;28;20475;-74
2021/10/25 12:39:43;;;;;;;6.35;1.90;;;;;;;12.91;64.90;101544.19;4927184;29;20040;-75
2021/10/25 12:42:08;;;;;;;4.45;1.55;;;;;;;12.79;65.54;101543.63;4925610;28;20034;-74
2021/10/25 12:44:36;;;;;;;4.57;1.48;;;;;;;12.76;66.27;101537.91;4925124;28;20028;-74
2021/10/25 12:47:13;;;;;;;4.30;1.73;;;;;;;12.52;67.15;101536.75;4977081;28;20037;-73
2021/10/25 12:49:39;;;;;;;8.15;2.33;;;;;;;12.51;67.26;101532.53;4926599;28;20448;-74
2021/10/25 12:52:07;;;;;;;5.97;1.92;;;;;;;12.41;67.83;101536.97;4930929;29;20047;-74
2021/10/25 12:54:38;;;;;;;4.55;1.73;;;;;;;12.31;68.39;101539.66;4924580;28;20028;-74
2021/10/25 12:57:23;;;;;;;6.90;2.10;;;;;;;12.40;67.67;101530.97;4920829;28;20191;-74
2021/10/25 13:00:16;;;;;;;5.88;2.03;;;;;;;12.48;67.04;101519.81;4933465;28;20571;-74
2021/10/25 13:02:43;;;;;;;8.95;1.80;;;;;;;12.41;65.78;101526.56;4945380;28;20059;-74
2021/10/25 13:05:16;;;;;;;3.38;1.52;;;;;;;12.37;67.20;101526.06;4931462;29;20455;-74
2021/10/25 13:07:46;;;;;;;8.10;1.98;;;;;;;12.30;67.28;101525.03;4921897;29;20134;-74
2021/10/25 13:10:12;;;;;;;7.68;1.63;;;;;;;12.31;67.07;101518.88;4935108;28;20047;-73